Time;durP1;ratioP1;P1;durP2;ratioP2;P2;SDS_P1;SDS_P2;PMS_P1;PMS_P2;Temp;Humidity;BMP_temperature;BMP_pressure;BME280_temperature;BME280_humidity;BME280_pressure;Samples;Min_cycle;Max_cycle;Signal;HPM_P1;HPM_P2
2022/04/07 00:04:58;;;;;;;1.75;1.17;;;;;;;7.94;81.80;99204.28;10499622;28;20067;-78
2022/04/07 00:09:58;;;;;;;5.60;1.52;;;;;;;7.82;81.99;99193.47;10465685;28;20085;-79
2022/04/07 00:14:59;;;;;;;3.53;1.50;;;;;;;7.67;82.07;99182.56;10480930;28;20071;-78
2022/04/07 00:20:01;;;;;;;2.88;1.58;;;;;;;7.55;82.71;99177.84;10480537;28;20024;-78
2022/04/07 00:25:02;;;;;;;3.42;1.58;;;;;;;7.47;82.75;99156.75;10498399;28;20125;-79
2022/04/07 00:30:03;;;;;;;4.85;1.83;;;;;;;7.51;82.11;99165.56;10452787;28;20021;-78
2022/04/07 00:35:05;;;;;;;3.05;1.85;;;;;;;7.65;81.56;99151.28;10498021;28;20032;-78
2022/04/07 00:40:06;;;;;;;6.80;2.03;;;;;;;7.59;81.81;99138.94;10480354;28;20036;-78
2022/04/07 00:45:07;;;;;;;4.87;1.60;;;;;;;7.73;80.92;99128.06;10479700;28;20047;-78
2022/04/07 00:50:18;;;;;;;3.00;1.40;;;;;;;7.76;80.81;99112.53;10497044;28;20051;-78
2022/04/07 00:55:21;;;;;;;5.55;1.80;;;;;;;7.79;80.33;99103.13;10465772;28;20040;-79
2022/04/07 01:00:22;;;;;;;6.10;1.83;;;;;;;7.97;79.80;99112.31;10480173;28;20407;-79
2022/04/07 01:05:23;;;;;;;5.07;1.80;;;;;;;8.06;78.69;99076.13;10480215;28;20051;-79
2022/04/07 01:10:26;;;;;;;5.82;1.98;;;;;;;8.11;78.12;99071.03;10496026;28;20456;-78
2022/04/07 01:15:27;;;;;;;6.57;1.63;;;;;;;8.20;78.15;99068.69;10478759;28;20115;-78
2022/04/07 01:20:27;;;;;;;3.17;1.20;;;;;;;8.28;78.14;99049.78;10497023;28;20115;-79
2022/04/07 01:25:28;;;;;;;3.13;1.38;;;;;;;8.40;77.86;99062.28;10478027;28;20055;-79
2022/04/07 01:30:29;;;;;;;4.32;1.70;;;;;;;8.31;78.55;99040.31;10495449;28;20082;-79
2022/04/07 01:35:32;;;;;;;5.10;1.58;;;;;;;8.30;79.01;99041.16;10496163;28;20032;-79
2022/04/07 01:40:33;;;;;;;7.07;2.33;;;;;;;8.34;78.70;99039.50;10494604;28;20032;-79
2022/04/07 01:45:34;;;;;;;3.57;1.57;;;;;;;8.36;78.31;99011.75;10494859;28;20115;-80
2022/04/07 01:50:37;;;;;;;4.88;1.90;;;;;;;8.38;79.31;99025.72;10462570;28;20041;-79
2022/04/07 01:55:38;;;;;;;5.28;1.63;;;;;;;8.22;81.06;99016.63;10462078;28;20068;-79
2022/04/07 02:00:40;;;;;;;7.60;2.63;;;;;;;8.03;82.87;99017.81;10476569;28;20494;-79
2022/04/07 02:05:41;;;;;;;3.60;1.88;;;;;;;7.75;85.21;98996.19;10461244;28;20111;-79
2022/04/07 02:10:44;;;;;;;5.40;2.83;;;;;;;7.55;87.03;98999.09;10494549;28;20135;-79
2022/04/07 02:15:45;;;;;;;7.00;2.83;;;;;;;7.49;87.38;98989.41;10476548;28;20032;-79
2022/04/07 02:20:45;;;;;;;8.77;3.65;;;;;;;7.43;88.42;98977.91;10475778;28;20425;-78
2022/04/07 02:25:46;;;;;;;4.43;2.22;;;;;;;7.39;88.23;98961.31;10494627;28;20055;-78
2022/04/07 02:30:47;;;;;;;9.20;4.30;;;;;;;7.51;87.07;98944.31;10493453;28;20057;-78
2022/04/07 02:35:47;;;;;;;7.65;2.58;;;;;;;7.63;85.82;98935.09;10477491;28;20410;-78
2022/04/07 02:40:48;;;;;;;5.22;2.10;;;;;;;7.84;83.74;98920.06;10493876;28;20122;-78
2022/04/07 02:45:48;;;;;;;4.57;2.17;;;;;;;8.02;82.43;98923.16;10493330;28;20060;-79
2022/04/07 02:50:49;;;;;;;6.75;2.63;;;;;;;8.17;81.37;98909.63;10477287;28;20127;-79
2022/04/07 02:55:49;;;;;;;5.30;1.77;;;;;;;8.27;80.71;98894.22;10494860;28;20087;-78
2022/04/07 03:00:50;;;;;;;4.65;1.63;;;;;;;8.26;79.66;98875.13;10493529;28;20090;-78
2022/04/07 03:05:50;;;;;;;7.55;2.45;;;;;;;8.32;78.27;98867.47;10494856;28;20037;-79
2022/04/07 03:10:51;;;;;;;5.65;3.22;;;;;;;8.36;78.58;98855.38;10475852;28;20070;-78
2022/04/07 03:15:51;;;;;;;6.82;1.63;;;;;;;8.43;77.75;98866.84;10493876;28;20036;-79
2022/04/07 03:20:52;;;;;;;13.13;2.47;;;;;;;8.46;76.99;98859.09;10475258;28;20107;-80
2022/04/07 03:25:52;;;;;;;5.50;1.98;;;;;;;8.31;77.21;98850.06;10492932;28;20056;-79
2022/04/07 03:30:53;;;;;;;8.05;2.40;;;;;;;8.28;76.44;98849.97;10474467;28;20111;-79
2022/04/07 03:35:53;;;;;;;22.50;4.30;;;;;;;8.28;76.73;98836.94;10475329;28;20166;-79
2022/04/07 03:40:54;;;;;;;7.78;2.50;;;;;;;8.27;76.99;98816.03;10457688;28;20032;-79
2022/04/07 03:45:54;;;;;;;5.85;1.70;;;;;;;8.27;77.05;98809.13;10493426;28;20060;-79
2022/04/07 03:50:56;;;;;;;6.88;2.45;;;;;;;8.18;77.57;98796.75;10493008;28;20047;-79
2022/04/07 03:55:56;;;;;;;8.07;2.13;;;;;;;8.29;77.63;98796.13;10501245;28;20040;-79
2022/04/07 04:00:58;;;;;;;9.05;2.65;;;;;;;8.33;77.96;98787.53;10498770;28;20028;-79
2022/04/07 04:05:58;;;;;;;5.40;1.65;;;;;;;8.45;77.22;98774.78;10481599;28;20024;-80
2022/04/07 04:10:59;;;;;;;6.03;1.40;;;;;;;8.61;77.25;98773.44;10498792;28;20127;-79
2022/04/07 04:16:01;;;;;;;9.02;2.60;;;;;;;8.55;79.23;98765.47;10465117;28;20055;-80
2022/04/07 04:21:01;;;;;;;4.00;1.95;;;;;;;8.00;84.54;98739.88;10498086;28;20041;-79
2022/04/07 04:26:04;;;;;;;10.45;2.88;;;;;;;7.61;87.83;98743.25;10482140;28;20068;-79
2022/04/07 04:31:04;;;;;;;12.23;3.83;;;;;;;7.39;89.80;98734.00;10480101;28;20036;-79
2022/04/07 04:36:05;;;;;;;4.72;3.13;;;;;;;7.30;91.20;98714.72;10479504;28;20033;-78
2022/04/07 04:41:06;;;;;;;5.05;3.17;;;;;;;7.30;92.49;98700.81;10496145;28;20028;-78
2022/04/07 04:46:07;;;;;;;5.07;2.40;;;;;;;7.23;93.09;98670.28;10494449;28;20565;-77
2022/04/07 04:51:07;;;;;;;4.33;2.80;;;;;;;7.26;93.43;98655.63;10511984;28;20801;-78
2022/04/07 04:56:08;;;;;;;11.75;5.15;;;;;;;7.18;94.29;98636.34;10497746;28;20049;-76
2022/04/07 05:01:08;;;;;;;5.85;4.07;;;;;;;7.23;95.41;98628.66;10497871;28;20120;-75
2022/04/07 05:06:09;;;;;;;8.68;4.57;;;;;;;7.23;95.44;98621.72;10495138;28;20067;-77
2022/04/07 05:11:10;;;;;;;10.75;4.43;;;;;;;7.27;94.54;98615.75;10477634;28;20064;-76
2022/04/07 05:16:15;;;;;;;5.85;3.05;;;;;;;7.34;94.53;98598.56;10497128;28;20559;-76
2022/04/07 05:21:16;;;;;;;6.28;3.42;;;;;;;7.32;93.21;98603.72;10496064;28;20106;-77
2022/04/07 05:26:16;;;;;;;5.13;3.50;;;;;;;7.37;93.50;98597.75;10479500;28;20180;-77
2022/04/07 05:31:17;;;;;;;5.95;3.30;;;;;;;7.33;94.43;98586.41;10476870;28;20059;-78
2022/04/07 05:36:17;;;;;;;6.50;3.83;;;;;;;7.35;94.29;98569.97;10478240;28;20471;-78
2022/04/07 05:41:18;;;;;;;10.88;6.10;;;;;;;7.29;93.76;98562.03;10494662;28;20032;-77
2022/04/07 05:46:18;;;;;;;11.55;3.17;;;;;;;7.29;93.14;98562.03;10494084;28;20086;-76
2022/04/07 05:51:19;;;;;;;7.40;2.50;;;;;;;7.34;93.13;98507.50;10493364;28;20083;-77
2022/04/07 05:56:19;;;;;;;4.18;3.20;;;;;;;7.39;92.77;98511.09;10496593;28;20039;-77
2022/04/07 06:01:20;;;;;;;9.30;4.70;;;;;;;7.58;91.91;98496.75;10493652;28;20035;-75
2022/04/07 06:06:21;;;;;;;16.65;7.82;;;;;;;7.76;89.30;98482.34;10492993;28;20480;-75
2022/04/07 06:11:22;;;;;;;5.43;3.10;;;;;;;7.81;87.80;98462.50;10494875;28;20067;-76
2022/04/07 06:16:22;;;;;;;4.75;1.85;;;;;;;7.87;86.77;98444.38;10474866;28;20068;-78
2022/04/07 06:21:29;;;;;;;4.90;2.38;;;;;;;7.90;85.53;98421.00;10492702;28;20494;-76
2022/04/07 06:26:30;;;;;;;4.05;1.33;;;;;;;7.93;85.36;98401.97;10493810;28;20032;-76
2022/04/07 06:31:30;;;;;;;3.58;1.60;;;;;;;8.02;84.87;98383.00;10474987;28;20048;-76
2022/04/07 06:36:31;;;;;;;4.90;2.08;;;;;;;8.00;83.59;98366.47;10492618;28;20033;-76
2022/04/07 06:41:31;;;;;;;2.95;1.45;;;;;;;7.93;84.64;98363.75;10475578;28;20063;-76
2022/04/07 06:46:32;;;;;;;6.88;1.00;;;;;;;7.94;84.23;98349.03;10493783;28;20104;-76
2022/04/07 06:51:33;;;;;;;3.25;1.10;;;;;;;7.84;85.15;98337.56;10493155;28;20041;-76
2022/04/07 06:56:33;;;;;;;5.78;1.20;;;;;;;7.67;87.53;98303.41;10494701;28;20064;-76
2022/04/07 07:01:34;;;;;;;2.70;1.40;;;;;;;7.53;89.06;98303.16;10492600;28;20560;-76
2022/04/07 07:06:34;;;;;;;4.20;2.47;;;;;;;7.44;90.74;98282.16;10492992;28;20032;-76
2022/04/07 07:11:35;;;;;;;7.22;1.98;;;;;;;7.47;91.43;98258.78;10493237;28;20498;-77
2022/04/07 07:16:35;;;;;;;4.57;2.15;;;;;;;7.52;92.40;98249.34;10491442;28;20024;-76
2022/04/07 07:21:36;;;;;;;2.90;1.27;;;;;;;7.62;92.25;98216.56;10491565;28;20068;-78
2022/04/07 07:26:37;;;;;;;2.63;1.42;;;;;;;7.81;92.47;98198.63;10477236;28;20032;-76
2022/04/07 07:31:37;;;;;;;4.35;1.50;;;;;;;7.73;92.41;98183.75;10493738;28;20063;-76
2022/04/07 07:36:38;;;;;;;2.72;1.58;;;;;;;7.71;93.24;98154.22;10473534;28;20075;-79
2022/04/07 07:41:39;;;;;;;1.45;1.00;;;;;;;7.88;93.33;98170.09;10491090;28;20032;-75
2022/04/07 07:46:40;;;;;;;4.50;1.35;;;;;;;7.88;93.94;98154.47;10481375;28;20072;-75
2022/04/07 07:51:40;;;;;;;3.15;1.05;;;;;;;8.17;93.45;98127.09;10481000;28;20064;-75
2022/04/07 07:56:41;;;;;;;2.72;0.88;;;;;;;8.39;92.88;98117.78;10501916;28;20043;-77
2022/04/07 08:01:43;;;;;;;2.13;0.90;;;;;;;8.41;92.02;98100.44;10481247;28;20557;-75
2022/04/07 08:06:43;;;;;;;;;;;;;;;8.37;92.59;98103.88;10481437;28;20078;-75
2022/04/07 08:11:44;;;;;;;1.52;0.70;;;;;;;8.37;93.14;98096.94;10497110;28;19977;-77
2022/04/07 08:16:44;;;;;;;2.10;0.60;;;;;;;8.38;94.01;98085.66;10518817;28;20176;-76
2022/04/07 08:21:45;;;;;;;1.88;0.73;;;;;;;8.50;93.67;98077.13;10528749;28;20034;-79
2022/04/07 08:26:45;;;;;;;0.63;0.45;;;;;;;8.47;94.06;98056.22;10539612;28;20064;-77
2022/04/07 08:31:46;;;;;;;1.92;0.88;;;;;;;8.56;93.85;98080.66;10489074;28;20047;-77
2022/04/07 08:36:47;;;;;;;1.45;0.52;;;;;;;8.77;93.52;98074.81;10498631;28;20060;-77
2022/04/07 08:41:50;;;;;;;1.17;0.88;;;;;;;8.73;93.93;98089.53;10478657;28;20075;-77
2022/04/07 08:46:52;;;;;;;4.13;1.13;;;;;;;8.66;94.47;98159.00;10477945;28;20030;-77
2022/04/07 08:51:53;;;;;;;3.05;1.15;;;;;;;8.22;91.61;98167.97;10477189;28;20037;-77
2022/04/07 08:56:54;;;;;;;0.88;0.77;;;;;;;7.91;91.61;98188.38;10462504;28;20503;-77
2022/04/07 09:02:02;;;;;;;3.08;2.17;;;;;;;7.66;92.55;98204.44;10495352;28;20124;-77
2022/04/07 09:07:03;;;;;;;3.92;1.50;;;;;;;7.42;93.65;98205.78;10494923;28;20041;-77
2022/04/07 09:12:04;;;;;;;2.92;1.60;;;;;;;7.36;94.06;98214.38;10461919;28;20032;-77
2022/04/07 09:17:05;;;;;;;2.83;1.47;;;;;;;7.73;94.71;98191.56;10457643;28;20036;-76
2022/04/07 09:22:10;;;;;;;2.20;1.25;;;;;;;8.30;91.45;98208.91;10476633;28;20302;-77
2022/04/07 09:27:11;;;;;;;2.85;1.17;;;;;;;8.33;89.98;98214.16;10495755;28;20066;-75
2022/04/07 09:32:19;;;;;;;1.42;0.60;;;;;;;8.61;90.57;98212.84;10479152;28;20038;-75
2022/04/07 09:37:21;;;;;;;0.75;0.50;;;;;;;10.63;83.84;98193.72;10494566;28;20032;-76
2022/04/07 09:42:25;;;;;;;;;;;;;;;10.18;82.95;98200.41;10477810;28;20040;-78
2022/04/07 09:47:35;;;;;;;2.03;1.52;;;;;;;9.99;83.96;98198.53;10494320;28;19916;-78
2022/04/07 09:52:40;;;;;;;0.95;0.50;;;;;;;9.97;82.69;98181.97;10494667;28;20036;-78
2022/04/07 09:57:40;;;;;;;1.50;0.60;;;;;;;10.45;80.87;98185.78;10476868;28;20016;-78
2022/04/07 10:02:41;;;;;;;1.38;0.30;;;;;;;11.13;73.98;98183.41;10459883;28;20037;-78
2022/04/07 10:07:42;;;;;;;1.73;0.60;;;;;;;13.04;68.89;98186.66;10496289;28;20067;-77
2022/04/07 10:12:42;;;;;;;1.27;0.50;;;;;;;14.32;62.84;98177.81;10482366;28;20027;-79
2022/04/07 10:17:43;;;;;;;2.42;0.75;;;;;;;14.93;60.51;98173.59;10455837;28;20551;-79
2022/04/07 10:22:53;;;;;;;1.60;0.50;;;;;;;13.54;58.71;98191.66;10494101;28;20025;-77
2022/04/07 10:27:55;;;;;;;2.85;0.60;;;;;;;14.92;55.64;98211.34;10492005;28;20036;-78
2022/04/07 10:32:58;;;;;;;2.22;0.50;;;;;;;15.35;55.83;98215.19;10472844;28;20044;-78
2022/04/07 10:37:59;;;;;;;3.75;1.02;;;;;;;17.53;50.79;98211.25;10462188;28;20016;-78
2022/04/07 10:43:17;;;;;;;1.60;0.70;;;;;;;16.14;51.90;98189.38;10493984;28;20028;-78
2022/04/07 10:48:37;;;;;;;4.07;0.80;;;;;;;16.78;51.24;98206.63;10491628;28;20052;-79
2022/04/07 10:54:00;;;;;;;4.75;0.63;;;;;;;18.19;48.37;98196.41;10485757;28;20032;-79
2022/04/07 10:59:09;;;;;;;3.70;1.30;;;;;;;18.05;46.50;98217.06;10479647;28;20086;-79
2022/04/07 11:04:22;;;;;;;4.13;0.90;;;;;;;17.51;41.42;98228.91;10500661;28;20028;-79
2022/04/07 11:09:23;;;;;;;4.18;3.20;;;;;;;13.69;47.70;98251.09;10484649;28;20476;-80
2022/04/07 11:14:27;;;;;;;5.05;1.30;;;;;;;14.07;49.04;98243.81;10484181;28;20048;-79
2022/04/07 11:19:47;;;;;;;4.90;0.80;;;;;;;16.31;44.11;98252.38;10480881;28;20032;-79
2022/04/07 11:24:54;;;;;;;1.95;0.65;;;;;;;17.43;40.64;98260.81;10467137;28;20454;-79
2022/04/07 11:30:03;;;;;;;1.90;0.88;;;;;;;17.10;41.25;98269.44;10481538;28;20033;-79
2022/04/07 11:35:14;;;;;;;1.20;0.40;;;;;;;16.02;43.41;98277.50;10501978;28;20151;-80
2022/04/07 11:40:14;;;;;;;4.28;1.98;;;;;;;13.60;48.41;98290.56;10501322;28;20494;-79
2022/04/07 11:45:15;;;;;;;7.40;2.58;;;;;;;13.36;48.87;98293.31;10500261;28;20028;-80
2022/04/07 11:50:19;;;;;;;2.83;0.82;;;;;;;14.83;45.67;98295.72;10430817;28;20125;-79
2022/04/07 11:55:29;;;;;;;21.20;2.15;;;;;;;14.28;44.30;98294.47;10415667;28;20033;-80
2022/04/07 12:00:30;;;;;;;3.42;1.33;;;;;;;12.60;48.76;98317.16;10417195;28;20424;-78
2022/04/07 12:05:31;;;;;;;4.78;1.23;;;;;;;12.13;50.34;98323.28;10416256;28;20037;-79
2022/04/07 12:10:31;;;;;;;5.57;1.30;;;;;;;11.59;49.40;98310.94;10416708;28;20080;-80
2022/04/07 12:15:36;;;;;;;6.18;2.97;;;;;;;11.39;50.90;98329.25;10414457;28;20063;-79
2022/04/07 12:20:37;;;;;;;5.35;1.00;;;;;;;12.08;52.14;98325.94;10414834;28;20030;-78
2022/04/07 12:25:39;;;;;;;5.63;1.60;;;;;;;11.46;51.36;98347.59;10411522;28;20037;-79
2022/04/07 12:30:44;;;;;;;8.63;4.68;;;;;;;11.09;55.50;98436.44;10415694;28;20037;-80
2022/04/07 12:35:49;;;;;;;7.50;3.15;;;;;;;12.38;53.50;98405.50;10416669;28;20032;-79
2022/04/07 12:40:52;;;;;;;8.30;2.63;;;;;;;15.98;46.78;98387.47;10412649;28;20116;-78
2022/04/07 12:45:56;;;;;;;7.55;3.13;;;;;;;17.41;43.17;98402.72;10408634;28;20053;-79
2022/04/07 12:50:57;;;;;;;5.25;2.00;;;;;;;17.88;42.63;98418.53;10443369;28;20099;-79
2022/04/07 12:56:02;;;;;;;9.32;2.13;;;;;;;17.80;42.20;98423.13;10452520;28;20130;-78
2022/04/07 13:01:07;;;;;;;5.63;1.90;;;;;;;17.44;42.82;98437.03;10452499;28;20033;-78
2022/04/07 13:06:11;;;;;;;9.15;3.50;;;;;;;17.03;42.65;98444.84;10451938;28;20111;-78
2022/04/07 13:11:13;;;;;;;10.75;4.68;;;;;;;14.63;44.07;98451.22;10452541;28;20511;-79
2022/04/07 13:16:13;;;;;;;10.88;3.75;;;;;;;12.60;50.57;98453.59;10451806;28;20017;-78
2022/04/07 13:21:15;;;;;;;10.93;2.78;;;;;;;13.10;50.15;98431.72;10451874;28;20021;-80
2022/04/07 13:26:15;;;;;;;9.77;3.85;;;;;;;13.51;49.27;98449.16;10451780;28;20477;-78
2022/04/07 13:31:16;;;;;;;9.63;2.72;;;;;;;13.22;48.33;98447.44;10453898;28;20065;-79
2022/04/07 13:36:18;;;;;;;10.40;2.20;;;;;;;11.48;52.95;98477.69;10454230;28;20040;-78
2022/04/07 13:41:18;;;;;;;11.77;2.85;;;;;;;10.65;54.59;98482.34;10454804;28;20447;-79
2022/04/07 13:46:26;;;;;;;11.57;4.30;;;;;;;10.63;55.47;98476.22;10516933;28;20128;-78
2022/04/07 13:51:26;;;;;;;13.32;5.15;;;;;;;11.81;50.42;98483.97;10495675;28;20050;-77
2022/04/07 13:56:27;;;;;;;5.78;2.05;;;;;;;11.13;55.27;98487.06;10482995;28;20153;-78
2022/04/07 14:01:28;;;;;;;11.70;3.55;;;;;;;10.97;55.41;98478.22;10488120;28;20025;-78
2022/04/07 14:06:28;;;;;;;8.77;3.40;;;;;;;10.33;57.39;98479.34;10470498;28;20543;-78
2022/04/07 14:11:29;;;;;;;7.07;2.63;;;;;;;9.52;60.12;98492.34;10501292;28;20094;-77
2022/04/07 14:16:30;;;;;;;13.43;4.07;;;;;;;12.95;51.30;98493.88;10484762;28;20408;-78
2022/04/07 14:21:31;;;;;;;12.30;2.97;;;;;;;13.71;47.17;98485.88;10485639;28;20038;-78
2022/04/07 14:26:35;;;;;;;9.75;3.28;;;;;;;15.09;44.45;98490.38;10481902;28;20486;-77
2022/04/07 14:31:36;;;;;;;13.10;2.72;;;;;;;12.77;48.55;98497.34;10487843;28;20029;-78
2022/04/07 14:36:37;;;;;;;12.63;2.10;;;;;;;13.44;44.80;98500.00;10468875;28;20128;-78
2022/04/07 14:41:37;;;;;;;7.35;1.98;;;;;;;13.90;44.77;98510.38;10468538;28;20112;-78
2022/04/07 14:46:38;;;;;;;7.30;2.35;;;;;;;13.28;44.50;98512.22;10469580;28;20118;-79
2022/04/07 14:51:38;;;;;;;8.50;2.78;;;;;;;12.29;48.92;98511.25;10462599;28;20039;-78
2022/04/07 14:56:39;;;;;;;8.88;2.20;;;;;;;12.49;47.75;98531.41;10420972;28;20504;-78
2022/04/07 15:01:39;;;;;;;10.13;2.25;;;;;;;11.25;50.96;98550.00;10430931;28;20060;-77
2022/04/07 15:06:43;;;;;;;8.38;2.33;;;;;;;9.31;62.76;98580.81;10419351;28;20078;-77
2022/04/07 15:11:43;;;;;;;10.45;2.90;;;;;;;7.53;71.44;98597.28;10447688;28;20029;-75
2022/04/07 15:16:47;;;;;;;9.23;2.75;;;;;;;6.85;77.78;98637.22;10433381;28;20539;-77
2022/04/07 15:21:47;;;;;;;13.88;3.63;;;;;;;6.43;80.31;98617.91;10461763;28;20102;-76
2022/04/07 15:26:48;;;;;;;18.23;5.22;;;;;;;7.70;77.61;98589.88;10466073;28;20036;-75
2022/04/07 15:31:48;;;;;;;13.75;3.38;;;;;;;7.63;74.73;98617.47;10417421;28;20544;-76
2022/04/07 15:36:49;;;;;;;20.50;4.00;;;;;;;7.50;76.26;98602.41;10429389;28;20082;-75
2022/04/07 15:41:50;;;;;;;14.70;4.90;;;;;;;7.32;75.31;98608.06;10450631;28;20053;-75
2022/04/07 15:46:51;;;;;;;14.35;11.57;;;;;;;7.17;76.54;98664.09;10382599;28;20553;-75
2022/04/07 15:51:51;;;;;;;13.07;5.10;;;;;;;6.51;78.86;98696.97;10384786;28;20111;-75
2022/04/07 15:56:52;;;;;;;6.70;2.47;;;;;;;5.51;77.82;98635.03;10426379;28;20130;-76
2022/04/07 16:01:52;;;;;;;7.82;2.42;;;;;;;5.15;80.96;98631.28;10396349;28;20124;-73
2022/04/07 16:06:53;;;;;;;8.30;3.75;;;;;;;5.40;79.81;98728.06;10423140;28;20033;-74
2022/04/07 16:11:54;;;;;;;7.70;2.08;;;;;;;4.89;81.57;98710.75;10434738;28;20071;-74
2022/04/07 16:16:54;;;;;;;11.68;3.30;;;;;;;4.51;82.69;98682.63;10417530;28;20049;-74
2022/04/07 16:21:55;;;;;;;6.50;1.75;;;;;;;4.70;81.92;98686.78;10398621;28;20071;-75
2022/04/07 16:26:55;;;;;;;5.68;2.00;;;;;;;5.55;76.30;98665.44;10422379;28;20159;-77
2022/04/07 16:31:56;;;;;;;8.02;2.60;;;;;;;5.79;76.93;98672.25;10411434;28;20064;-78
2022/04/07 16:36:56;;;;;;;7.70;1.80;;;;;;;6.11;73.93;98696.63;10358232;28;20442;-78
2022/04/07 16:41:57;;;;;;;6.22;1.60;;;;;;;5.92;75.29;98723.72;10413929;28;20130;-79
2022/04/07 16:46:57;;;;;;;6.57;1.73;;;;;;;5.03;77.25;98709.53;10353761;28;20034;-77
2022/04/07 16:51:58;;;;;;;6.55;2.55;;;;;;;4.74;81.03;98691.25;10372565;28;20048;-79
2022/04/07 16:56:58;;;;;;;11.57;3.30;;;;;;;5.31;79.24;98709.59;10355398;28;20050;-80
2022/04/07 17:01:59;;;;;;;3.63;1.30;;;;;;;5.91;74.37;98696.00;10374029;28;20060;-78
2022/04/07 17:07:00;;;;;;;3.53;1.48;;;;;;;6.19;72.76;98696.00;10354548;28;20029;-79
2022/04/07 17:12:03;;;;;;;6.88;2.33;;;;;;;6.31;70.49;98685.97;10388193;28;20072;-80
2022/04/07 17:17:04;;;;;;;14.80;3.05;;;;;;;6.28;71.37;98715.34;10371282;28;20026;-80
2022/04/07 17:22:04;;;;;;;6.07;1.85;;;;;;;6.45;73.22;98734.03;10373645;28;20022;-80
2022/04/07 17:27:05;;;;;;;7.60;2.25;;;;;;;6.35;73.49;98698.22;10351882;28;20034;-79
2022/04/07 17:32:06;;;;;;;5.25;1.83;;;;;;;6.39;72.04;98717.38;10372204;28;20060;-78
2022/04/07 17:37:09;;;;;;;11.63;2.63;;;;;;;6.45;72.42;98721.03;10369518;28;20462;-78
2022/04/07 17:42:14;;;;;;;14.10;4.97;;;;;;;6.57;72.17;98758.63;10375090;28;20041;-78
2022/04/07 17:47:15;;;;;;;10.98;3.47;;;;;;;6.81;73.37;98742.88;10399280;28;20075;-78
2022/04/07 17:52:15;;;;;;;13.10;3.67;;;;;;;6.97;72.28;98748.50;10414127;28;20072;-79
2022/04/07 17:57:16;;;;;;;13.15;2.92;;;;;;;7.14;69.73;98754.16;10354142;28;20076;-80
2022/04/07 18:02:16;;;;;;;12.57;4.22;;;;;;;7.39;67.96;98768.72;10345225;28;20041;-80
2022/04/07 18:07:17;;;;;;;10.13;3.30;;;;;;;7.52;66.39;98776.88;10410123;28;20416;-80
2022/04/07 18:12:17;;;;;;;19.35;5.25;;;;;;;7.59;67.52;98808.28;10397704;28;20056;-79
2022/04/07 18:17:18;;;;;;;17.20;6.00;;;;;;;7.01;70.63;98813.66;10435957;28;20519;-79
2022/04/07 18:22:18;;;;;;;10.75;3.03;;;;;;;7.06;69.82;98819.00;10445580;28;20499;-79
2022/04/07 18:27:20;;;;;;;12.02;2.78;;;;;;;7.35;66.34;98835.41;10393163;28;20099;-81
2022/04/07 18:32:21;;;;;;;14.82;2.85;;;;;;;7.57;64.50;98832.53;10403060;28;20033;-80
2022/04/07 18:37:21;;;;;;;14.82;5.75;;;;;;;7.68;64.07;98846.72;10425411;28;20029;-81
2022/04/07 18:42:22;;;;;;;10.70;2.83;;;;;;;7.70;64.06;98860.66;10446505;28;20077;-81
2022/04/07 18:47:23;;;;;;;12.73;3.30;;;;;;;7.44;66.58;98884.25;10467042;28;20419;-79
2022/04/07 18:52:23;;;;;;;8.48;2.40;;;;;;;7.29;67.35;98884.69;10459868;28;20028;-80
2022/04/07 18:57:24;;;;;;;20.15;4.32;;;;;;;7.31;66.02;98901.22;10469270;28;20064;-80
2022/04/07 19:02:25;;;;;;;10.82;4.70;;;;;;;7.37;65.51;98908.34;10465772;28;20060;-78
2022/04/07 19:07:26;;;;;;;12.20;4.27;;;;;;;7.34;66.47;98916.06;10484176;28;20037;-78
2022/04/07 19:12:26;;;;;;;6.57;2.83;;;;;;;7.28;67.13;98913.28;10442448;28;20034;-79
2022/04/07 19:17:27;;;;;;;15.32;5.25;;;;;;;7.33;66.60;98924.72;10460220;28;20073;-79
2022/04/07 19:22:27;;;;;;;15.93;3.53;;;;;;;7.31;68.08;98932.44;10438643;28;20033;-79
2022/04/07 19:27:28;;;;;;;17.92;4.70;;;;;;;7.12;68.95;98945.75;10484742;28;20638;-79
2022/04/07 19:32:28;;;;;;;13.02;3.90;;;;;;;7.10;68.71;98978.63;10440710;28;20188;-79
2022/04/07 19:37:29;;;;;;;7.70;3.38;;;;;;;6.96;72.67;99040.63;10469761;28;20109;-77
2022/04/07 19:42:30;;;;;;;19.10;3.20;;;;;;;6.30;75.95;99059.22;10464954;28;20094;-77
2022/04/07 19:47:30;;;;;;;12.88;3.55;;;;;;;5.70;82.01;99109.78;10459675;28;20032;-77
2022/04/07 19:52:31;;;;;;;12.40;5.90;;;;;;;5.23;84.97;99126.94;10477112;28;20025;-77
2022/04/07 19:57:34;;;;;;;10.07;4.13;;;;;;;4.98;86.56;99110.38;10467649;28;20139;-78
2022/04/07 20:02:35;;;;;;;14.68;3.95;;;;;;;4.91;86.63;99100.56;10465848;28;20028;-77
2022/04/07 20:07:35;;;;;;;6.32;2.80;;;;;;;4.92;85.13;99092.81;10458111;28;20037;-77
2022/04/07 20:12:37;;;;;;;8.68;1.35;;;;;;;4.82;83.66;99096.75;10437675;28;20558;-78
2022/04/07 20:17:39;;;;;;;4.13;1.57;;;;;;;4.67;83.20;99104.75;10461024;28;20017;-77
2022/04/07 20:22:40;;;;;;;4.20;1.80;;;;;;;4.55;83.55;99112.91;10497140;28;20040;-78
2022/04/07 20:27:40;;;;;;;5.20;2.60;;;;;;;4.64;83.09;99120.16;10456441;28;20476;-78
2022/04/07 20:32:41;;;;;;;7.25;2.90;;;;;;;4.88;82.63;99145.38;10436681;28;20025;-78
2022/04/07 20:37:42;;;;;;;7.45;3.45;;;;;;;5.04;81.59;99167.66;10476597;28;20025;-77
2022/04/07 20:42:44;;;;;;;12.73;5.45;;;;;;;5.14;81.49;99179.28;10462636;28;20090;-78
2022/04/07 20:47:44;;;;;;;;;;;;;;;4.99;82.66;99185.59;10455179;28;20128;-78
2022/04/07 20:52:45;;;;;;;21.67;5.93;;;;;;;4.87;83.34;99200.63;10477233;28;20004;-77
2022/04/07 20:57:45;;;;;;;13.48;4.25;;;;;;;4.84;82.70;99208.28;10471678;28;20465;-78
2022/04/07 21:02:46;;;;;;;19.88;4.28;;;;;;;4.98;81.97;99216.66;10420576;28;20033;-78
2022/04/07 21:07:50;;;;;;;22.30;5.60;;;;;;;4.97;82.58;99231.31;10458456;28;20028;-78
2022/04/07 21:12:50;;;;;;;19.70;5.45;;;;;;;4.91;82.30;99223.28;10478468;28;20067;-78
2022/04/07 21:17:51;;;;;;;18.05;6.43;;;;;;;4.88;82.14;99237.81;10449900;28;20843;-78
2022/04/07 21:22:51;;;;;;;16.65;3.95;;;;;;;4.84;82.04;99255.84;10445545;28;20126;-78
2022/04/07 21:27:52;;;;;;;15.82;3.83;;;;;;;4.92;81.70;99270.84;10456726;28;20224;-78
2022/04/07 21:32:52;;;;;;;13.27;3.35;;;;;;;4.96;82.30;99289.19;10435304;28;20120;-78
2022/04/07 21:37:53;;;;;;;14.98;3.38;;;;;;;5.26;80.97;99309.50;10439584;28;20495;-78
2022/04/07 21:42:54;;;;;;;12.00;4.07;;;;;;;5.49;79.53;99319.13;10435161;28;20053;-78
2022/04/07 21:47:54;;;;;;;6.05;2.15;;;;;;;5.56;76.93;99326.38;10436585;28;20041;-78
2022/04/07 21:52:55;;;;;;;7.68;2.47;;;;;;;5.74;74.90;99336.63;10454259;28;20036;-78
2022/04/07 21:57:55;;;;;;;3.88;2.15;;;;;;;5.80;75.40;99339.50;10435374;28;20037;-79
2022/04/07 22:02:56;;;;;;;3.65;1.35;;;;;;;5.79;75.43;99352.41;10433967;28;20091;-79
2022/04/07 22:07:56;;;;;;;6.78;1.95;;;;;;;5.63;75.96;99353.44;10468212;28;20056;-80
2022/04/07 22:12:57;;;;;;;5.32;2.08;;;;;;;5.59;76.33;99371.50;10501708;28;20045;-79
2022/04/07 22:17:57;;;;;;;8.93;3.33;;;;;;;5.46;77.38;99368.31;10462530;28;20468;-79
2022/04/07 22:22:58;;;;;;;6.45;1.98;;;;;;;5.21;78.11;99381.06;10442629;28;20050;-80
2022/04/07 22:27:59;;;;;;;3.72;1.88;;;;;;;5.19;79.47;99405.16;10451782;28;20105;-79
2022/04/07 22:32:59;;;;;;;8.18;2.53;;;;;;;5.33;78.10;99423.94;10501836;28;20466;-78
2022/04/07 22:38:00;;;;;;;12.77;3.33;;;;;;;5.42;78.19;99433.03;10474728;28;20143;-79
2022/04/07 22:43:01;;;;;;;2.67;1.70;;;;;;;5.39;77.38;99434.59;10455759;28;20136;-79
2022/04/07 22:48:01;;;;;;;7.90;1.98;;;;;;;5.14;78.89;99447.34;10458585;28;20120;-80
2022/04/07 22:53:02;;;;;;;6.78;3.28;;;;;;;5.10;79.33;99465.25;10424361;28;20035;-79
2022/04/07 22:58:02;;;;;;;7.28;2.53;;;;;;;5.15;79.35;99471.56;10449058;28;20031;-81
2022/04/07 23:03:03;;;;;;;6.32;2.08;;;;;;;5.24;80.13;99504.84;10499923;28;20062;-82
2022/04/07 23:08:03;;;;;;;7.15;2.30;;;;;;;4.90;82.70;99511.88;10453758;28;20119;-80
2022/04/07 23:13:04;;;;;;;5.20;1.55;;;;;;;4.58;83.63;99536.22;10462694;28;20041;-79
2022/04/07 23:18:06;;;;;;;8.63;1.00;;;;;;;4.31;84.34;99540.06;10490786;28;20174;-79
2022/04/07 23:23:08;;;;;;;16.77;1.67;;;;;;;4.19;85.58;99536.84;10441047;28;20029;-79
2022/04/07 23:28:08;;;;;;;2.63;1.42;;;;;;;4.18;85.55;99554.09;10465007;28;20377;-79
2022/04/07 23:33:09;;;;;;;4.95;1.33;;;;;;;4.06;85.77;99561.22;10480451;28;20024;-79